^^
Saratoga-Weather Station Historical Data
Daily Summary for May 8, 2020 Units:  Metric    English   Both
Daily Weekly Monthly Yearly Custom
  High: Low: Average:
Temperature: 4.4 °C -1.2 °C 1.6 °C
Dew Point: 2.8 °C -1.9 °C 0.6 °C
Humidity: 96% 88% 93%
Wind Speed: 3.2km/h 0km/h 0.1km/h
Wind Gust: 4.8km/h - -
Wind- - SSE
Pressure: 1023.4 hPa 1022.0 hPa -
Precipitation: 0.2 mm    
Historical Graphs
 
 
Tabular Data for May 8, 2020
Time Temperature Dew Point Pressure Wind Wind Speed Wind Gust Humidity Rainfall Rate (Hourly) solar
00:00 -0.2 °C -1.3 °C 1023.4 hPa Calm     92% 0.0 mm 0 W/m2
00:05 -0.2 °C -1.2 °C 1023.4 hPa Calm     93% 0.0 mm 0 W/m2
00:10 -0.3 °C -1.3 °C 1023.4 hPa Calm     93% 0.0 mm 0 W/m2
00:15 -0.3 °C -1.3 °C 1023.4 hPa Calm     93% 0.0 mm 0 W/m2
00:20 -0.3 °C -1.3 °C 1023.0 hPa Calm     93% 0.0 mm 0 W/m2
00:25 -0.3 °C -1.3 °C 1023.0 hPa Calm     93% 0.0 mm 0 W/m2
00:30 -0.3 °C -1.3 °C 1023.0 hPa Calm     93% 0.0 mm 0 W/m2
00:35 -0.4 °C -1.4 °C 1023.0 hPa Calm     93% 0.0 mm 0 W/m2
00:40 -0.4 °C -1.4 °C 1023.0 hPa Calm     93% 0.0 mm 0 W/m2
00:45 -0.5 °C -1.5 °C 1023.0 hPa Calm     93% 0.0 mm 0 W/m2
00:51 -0.5 °C -1.3 °C 1023.0 hPa Calm     94% 0.0 mm 0 W/m2
00:56 -0.6 °C -1.6 °C 1023.0 hPa Calm     93% 0.0 mm 0 W/m2
01:01 -0.6 °C -1.6 °C 1023.0 hPa Calm     93% 0.0 mm 0 W/m2
01:06 -0.7 °C -1.5 °C 1023.0 hPa Calm     94% 0.0 mm 0 W/m2
01:11 -0.8 °C -1.8 °C 1023.0 hPa Calm     93% 0.0 mm 0 W/m2
01:16 -0.8 °C -1.6 °C 1023.0 hPa Calm     94% 0.0 mm 0 W/m2
01:21 -0.8 °C -1.6 °C 1023.0 hPa Calm     94% 0.0 mm 0 W/m2
01:26 -0.7 °C -1.5 °C 1023.0 hPa Calm     94% 0.0 mm 0 W/m2
01:31 -0.7 °C -1.5 °C 1022.7 hPa Calm     94% 0.0 mm 0 W/m2
01:36 -0.7 °C -1.4 °C 1023.0 hPa Calm     95% 0.0 mm 0 W/m2
01:41 -0.6 °C -1.4 °C 1023.0 hPa Calm     94% 0.0 mm 0 W/m2
01:46 -0.7 °C -1.4 °C 1023.0 hPa Calm     95% 0.0 mm 0 W/m2
01:51 -0.6 °C -1.3 °C 1023.0 hPa Calm     95% 0.0 mm 0 W/m2
01:56 -0.6 °C -1.3 °C 1023.0 hPa Calm     95% 0.0 mm 0 W/m2
02:01 -0.5 °C -1.2 °C 1023.0 hPa Calm     95% 0.0 mm 0 W/m2
02:06 -0.4 °C -1.1 °C 1022.7 hPa Calm     95% 0.0 mm 0 W/m2
02:11 -0.4 °C -1.1 °C 1023.0 hPa Calm     95% 0.0 mm 0 W/m2
02:17 -0.4 °C -1.1 °C 1023.0 hPa Calm     95% 0.0 mm 0 W/m2
02:22 -0.4 °C -1.1 °C 1023.0 hPa Calm     95% 0.0 mm 0 W/m2
02:27 -0.4 °C -1.1 °C 1023.0 hPa Calm     95% 0.0 mm 0 W/m2
02:32 -0.4 °C -1.1 °C 1023.0 hPa Calm     95% 0.0 mm 0 W/m2
02:37 -0.4 °C -1.1 °C 1023.0 hPa Calm     95% 0.0 mm 0 W/m2
02:42 -0.4 °C -1.1 °C 1023.0 hPa Calm     95% 0.0 mm 0 W/m2
02:47 -0.5 °C -1.2 °C 1023.4 hPa Calm     95% 0.0 mm 0 W/m2
02:52 -0.5 °C -1.2 °C 1023.4 hPa Calm     95% 0.0 mm 0 W/m2
02:57 -0.6 °C -1.3 °C 1023.4 hPa Calm     95% 0.0 mm 0 W/m2
03:02 -0.7 °C -1.4 °C 1023.4 hPa Calm     95% 0.0 mm 0 W/m2
03:07 -0.7 °C -1.4 °C 1023.4 hPa Calm     95% 0.0 mm 0 W/m2
03:12 -0.8 °C -1.5 °C 1023.0 hPa Calm     95% 0.0 mm 0 W/m2
03:17 -0.8 °C -1.5 °C 1023.0 hPa Calm     95% 0.0 mm 0 W/m2
03:22 -0.8 °C -1.5 °C 1023.0 hPa Calm     95% 0.0 mm 0 W/m2
03:27 -0.8 °C -1.5 °C 1023.0 hPa Calm     95% 0.0 mm 0 W/m2
03:32 -0.8 °C -1.5 °C 1023.0 hPa Calm     95% 0.0 mm 0 W/m2
03:37 -0.8 °C -1.5 °C 1023.0 hPa Calm     95% 0.0 mm 0 W/m2
03:42 -0.8 °C -1.5 °C 1023.0 hPa Calm     95% 0.0 mm 0 W/m2
03:47 -0.8 °C -1.5 °C 1023.0 hPa Calm     95% 0.0 mm 0 W/m2
03:52 -0.8 °C -1.5 °C 1023.0 hPa Calm     95% 0.0 mm 0 W/m2
03:57 -0.8 °C -1.5 °C 1023.0 hPa Calm     95% 0.0 mm 0 W/m2
04:02 -0.8 °C -1.5 °C 1023.0 hPa Calm     95% 0.0 mm 0 W/m2
04:08 -0.8 °C -1.5 °C 1023.0 hPa Calm     95% 0.0 mm 0 W/m2
04:13 -0.8 °C -1.5 °C 1023.0 hPa Calm     95% 0.0 mm 0 W/m2
04:18 -0.7 °C -1.4 °C 1023.0 hPa Calm     95% 0.0 mm 0 W/m2
04:23 -0.8 °C -1.5 °C 1023.0 hPa Calm     95% 0.0 mm 0 W/m2
04:28 -0.8 °C -1.5 °C 1022.7 hPa Calm     95% 0.0 mm 0 W/m2
04:33 -0.8 °C -1.5 °C 1022.7 hPa Calm     95% 0.0 mm 0 W/m2
04:38 -0.9 °C -1.6 °C 1022.7 hPa Calm     95% 0.0 mm 0 W/m2
04:43 -0.9 °C -1.6 °C 1022.7 hPa Calm     95% 0.0 mm 0 W/m2
04:48 -1 °C -1.7 °C 1022.7 hPa Calm     95% 0.0 mm 0 W/m2
04:53 -1 °C -1.7 °C 1022.7 hPa Calm     95% 0.0 mm 0 W/m2
04:58 -0.9 °C -1.6 °C 1022.7 hPa Calm   3.2 km/h 95% 0.0 mm 0 W/m2
05:03 -0.9 °C -1.6 °C 1022.7 hPa Calm     95% 0.0 mm 0 W/m2
05:08 -0.9 °C -1.6 °C 1022.7 hPa Calm   3.2 km/h 95% 0.0 mm 0 W/m2
05:13 -0.9 °C -1.6 °C 1022.7 hPa Calm     95% 0.0 mm 0 W/m2
05:18 -1 °C -1.7 °C 1022.7 hPa Calm     95% 0.0 mm 0 W/m2
05:23 -1.1 °C -1.8 °C 1022.7 hPa Calm     95% 0.0 mm 0 W/m2
05:28 -1.1 °C -1.8 °C 1022.7 hPa Calm     95% 0.0 mm 0 W/m2
05:33 -1.1 °C -1.8 °C 1022.7 hPa Calm     95% 0.0 mm 0 W/m2
05:38 -1.1 °C -1.8 °C 1022.7 hPa Calm     95% 0.0 mm 0 W/m2
05:43 -1.2 °C -1.9 °C 1022.7 hPa Calm     95% 0.0 mm 0 W/m2
05:48 -1.2 °C -1.9 °C 1022.7 hPa Calm     95% 0.0 mm 0 W/m2
05:53 -1.2 °C -1.8 °C 1022.7 hPa Calm     96% 0.0 mm 0 W/m2
05:59 -1.1 °C -1.7 °C 1022.7 hPa Calm     96% 0.0 mm 0 W/m2
06:04 -1 °C -1.6 °C 1022.7 hPa Calm     96% 0.0 mm 0 W/m2
06:09 -0.9 °C -1.5 °C 1022.7 hPa Calm     96% 0.0 mm 0 W/m2
06:14 -0.9 °C -1.5 °C 1022.7 hPa Calm     96% 0.0 mm 0 W/m2
06:19 -0.9 °C -1.5 °C 1022.7 hPa Calm     96% 0.0 mm 0 W/m2
06:24 -1 °C -1.6 °C 1023.0 hPa Calm     96% 0.0 mm 0 W/m2
06:29 -1 °C -1.7 °C 1023.0 hPa Calm     95% 0.0 mm 0 W/m2
06:34 -1.1 °C -1.8 °C 1023.0 hPa Calm     95% 0.0 mm 0 W/m2
06:39 -1.1 °C -1.8 °C 1023.0 hPa Calm     95% 0.0 mm 0 W/m2
06:44 -1.2 °C -1.9 °C 1023.0 hPa Calm     95% 0.0 mm 0 W/m2
06:49 -1.2 °C -1.9 °C 1023.0 hPa Calm     95% 0.0 mm 0 W/m2
06:54 -1.2 °C -1.8 °C 1023.0 hPa Calm     96% 0.0 mm 0 W/m2
06:59 -1.2 °C -1.8 °C 1023.0 hPa Calm     96% 0.0 mm 0 W/m2
07:04 -1.2 °C -1.8 °C 1023.0 hPa Calm     96% 0.0 mm 0 W/m2
07:09 -1 °C -1.6 °C 1023.0 hPa Calm     96% 0.0 mm 0 W/m2
07:14 -0.9 °C -1.5 °C 1023.0 hPa Calm     96% 0.0 mm 0 W/m2
07:19 -0.8 °C -1.4 °C 1023.0 hPa Calm     96% 0.0 mm 0 W/m2
07:24 -0.7 °C -1.3 °C 1023.0 hPa Calm   1.6 km/h 96% 0.0 mm 0 W/m2
07:29 -0.7 °C -1.3 °C 1023.0 hPa Calm     96% 0.0 mm 0 W/m2
07:34 -0.6 °C -1.2 °C 1023.0 hPa Calm   1.6 km/h 96% 0.0 mm 0 W/m2
07:39 -0.5 °C -1.1 °C 1023.0 hPa Calm     96% 0.0 mm 0 W/m2
07:44 -0.4 °C -1 °C 1023.0 hPa Calm     96% 0.0 mm 0 W/m2
07:49 -0.4 °C -1 °C 1023.0 hPa Calm     96% 0.0 mm 0 W/m2
07:54 -0.4 °C -1 °C 1023.0 hPa Calm     96% 0.0 mm 0 W/m2
07:59 -0.3 °C -0.9 °C 1023.0 hPa Calm     96% 0.0 mm 0 W/m2
08:04 -0.3 °C -0.9 °C 1023.0 hPa Calm     96% 0.0 mm 0 W/m2
08:09 -0.3 °C -0.9 °C 1023.4 hPa Calm     96% 0.0 mm 0 W/m2
08:14 -0.3 °C -0.9 °C 1023.4 hPa Calm     96% 0.0 mm 0 W/m2
08:19 -0.2 °C -0.8 °C 1023.4 hPa Calm     96% 0.0 mm 0 W/m2
08:24 -0.2 °C -0.8 °C 1023.4 hPa Calm     96% 0.0 mm 0 W/m2
08:29 -0.2 °C -0.8 °C 1023.4 hPa Calm     96% 0.0 mm 0 W/m2
08:34 -0.1 °C -0.7 °C 1023.4 hPa Calm     96% 0.0 mm 0 W/m2
08:39 -0.1 °C -0.7 °C 1023.0 hPa Calm     96% 0.0 mm 0 W/m2
08:44 -0.1 °C -0.7 °C 1023.4 hPa Calm     96% 0.0 mm 0 W/m2
08:49 0 °C -0.6 °C 1023.4 hPa Calm     96% 0.0 mm 0 W/m2
08:54 0.1 °C -0.5 °C 1023.4 hPa Calm     96% 0.0 mm 5 W/m2
08:59 0.1 °C -0.5 °C 1023.4 hPa Calm     96% 0.0 mm 0 W/m2
09:04 0.1 °C -0.5 °C 1023.4 hPa ESE 3.2 km/h 4.8 km/h 96% 0.0 mm 7 W/m2
09:09 0.2 °C -0.4 °C 1023.4 hPa Calm     96% 0.0 mm 11 W/m2
09:14 0.2 °C -0.4 °C 1023.4 hPa Calm   4.8 km/h 96% 0.0 mm 14 W/m2
09:19 0.2 °C -0.4 °C 1023.4 hPa ESE 1.4 km/h 3.2 km/h 96% 0.0 mm 14 W/m2
09:24 0.2 °C -0.4 °C 1023.4 hPa Calm   4.8 km/h 96% 0.0 mm 16 W/m2
09:29 0.3 °C -0.3 °C 1023.4 hPa Calm     96% 0.0 mm 16 W/m2
09:34 0.3 °C -0.3 °C 1023.4 hPa Calm     96% 0.0 mm 16 W/m2
09:39 0.3 °C -0.3 °C 1023.4 hPa Calm   3.2 km/h 96% 0.0 mm 19 W/m2
09:44 0.4 °C -0.2 °C 1023.4 hPa Calm   4.8 km/h 96% 0.0 mm 26 W/m2
09:49 0.4 °C -0.3 °C 1023.4 hPa East 1.4 km/h 1.6 km/h 95% 0.0 mm 30 W/m2
09:55 0.5 °C -0.2 °C 1023.4 hPa Calm   4.8 km/h 95% 0.0 mm 32 W/m2
10:00 0.6 °C -0.1 °C 1023.4 hPa Calm     95% 0.2 mm 30 W/m2
10:05 0.6 °C -0.1 °C 1023.4 hPa Calm     95% 0.2 mm 30 W/m2
10:10 0.6 °C -0.1 °C 1023.4 hPa Calm     95% 0.2 mm 30 W/m2
10:15 0.7 °C 0 °C 1023.4 hPa Calm   3.2 km/h 95% 0.2 mm 32 W/m2
10:20 0.7 °C 0 °C 1023.4 hPa Calm     95% 0.2 mm 30 W/m2
10:25 0.8 °C 0.1 °C 1023.4 hPa Calm     95% 0.2 mm 32 W/m2
10:30 0.9 °C 0.2 °C 1023.4 hPa Calm     95% 0.2 mm 32 W/m2
10:35 0.9 °C 0.2 °C 1023.4 hPa East 1.4 km/h 3.2 km/h 95% 0.2 mm 30 W/m2
10:40 1 °C 0.3 °C 1023.4 hPa Calm     95% 0.2 mm 26 W/m2
10:45 1.1 °C 0.4 °C 1023.4 hPa Calm   3.2 km/h 95% 0.2 mm 28 W/m2
10:50 1.1 °C 0.2 °C 1023.4 hPa Calm     94% 0.2 mm 30 W/m2
10:55 1.2 °C 0.3 °C 1023.4 hPa Calm     94% 0.2 mm 35 W/m2
11:00 1.2 °C 0.5 °C 1023.4 hPa Calm   3.2 km/h 95% 0.0 mm 39 W/m2
11:05 1.3 °C 0.4 °C 1023.4 hPa Calm   1.6 km/h 94% 0.0 mm 40 W/m2
11:10 1.3 °C 0.4 °C 1023.4 hPa East 3.2 km/h 3.2 km/h 94% 0.0 mm 39 W/m2
11:15 1.4 °C 0.5 °C 1023.4 hPa Calm     94% 0.0 mm 42 W/m2
11:20 1.4 °C 0.5 °C 1023.4 hPa Calm   3.2 km/h 94% 0.0 mm 46 W/m2
11:25 1.4 °C 0.5 °C 1023.4 hPa Calm     94% 0.0 mm 54 W/m2
11:30 1.6 °C 0.7 °C 1023.4 hPa Calm     94% 0.0 mm 56 W/m2
11:35 1.6 °C 0.7 °C 1023.4 hPa Calm     94% 0.0 mm 54 W/m2
11:40 1.6 °C 0.7 °C 1023.4 hPa Calm     94% 0.0 mm 56 W/m2
11:45 1.7 °C 0.7 °C 1023.4 hPa ESE 1.4 km/h 4.8 km/h 93% 0.0 mm 51 W/m2
11:50 1.8 °C 0.8 °C 1023.4 hPa ESE 3.2 km/h 3.2 km/h 93% 0.0 mm 51 W/m2
11:55 1.9 °C 0.9 °C 1023.4 hPa ESE 1.4 km/h 1.6 km/h 93% 0.0 mm 51 W/m2
12:00 1.9 °C 0.9 °C 1023.4 hPa Calm     93% 0.0 mm 44 W/m2
12:05 2 °C 1 °C 1023.4 hPa Calm     93% 0.0 mm 39 W/m2
12:10 2.1 °C 0.9 °C 1023.4 hPa Calm     92% 0.0 mm 40 W/m2
12:15 2.1 °C 0.9 °C 1023.4 hPa Calm     92% 0.0 mm 44 W/m2
12:20 2.2 °C 1 °C 1023.4 hPa Calm     92% 0.0 mm 39 W/m2
12:25 2.2 °C 1 °C 1023.4 hPa Calm     92% 0.0 mm 40 W/m2
12:30 2.3 °C 1.1 °C 1023.0 hPa Calm     92% 0.0 mm 42 W/m2
12:35 2.3 °C 1.1 °C 1023.4 hPa Calm     92% 0.0 mm 35 W/m2
12:40 2.4 °C 1.2 °C 1023.4 hPa Calm     92% 0.0 mm 33 W/m2
12:45 2.4 °C 1.1 °C 1023.0 hPa Calm     91% 0.0 mm 30 W/m2
12:50 2.5 °C 1.2 °C 1023.0 hPa Calm     91% 0.0 mm 32 W/m2
12:55 2.6 °C 1.3 °C 1023.0 hPa Calm     91% 0.0 mm 32 W/m2
13:00 2.6 °C 1.3 °C 1023.0 hPa Calm   1.6 km/h 91% 0.0 mm 33 W/m2
13:05 2.6 °C 1.3 °C 1023.0 hPa Calm   1.6 km/h 91% 0.0 mm 40 W/m2
13:10 2.7 °C 1.4 °C 1023.0 hPa Calm   1.6 km/h 91% 0.0 mm 46 W/m2
13:15 2.7 °C 1.4 °C 1023.0 hPa Calm   1.6 km/h 91% 0.0 mm 51 W/m2
13:21 2.7 °C 1.4 °C 1022.7 hPa Calm     91% 0.0 mm 58 W/m2
13:26 2.8 °C 1.5 °C 1022.7 hPa Calm   1.6 km/h 91% 0.0 mm 58 W/m2
13:31 2.8 °C 1.3 °C 1022.7 hPa East 1.4 km/h 3.2 km/h 90% 0.0 mm 53 W/m2
13:36 2.8 °C 1.3 °C 1022.7 hPa Calm   1.6 km/h 90% 0.0 mm 47 W/m2
13:41 2.8 °C 1.3 °C 1022.7 hPa Calm   3.2 km/h 90% 0.0 mm 42 W/m2
13:46 2.9 °C 1.4 °C 1022.7 hPa East 1.4 km/h 1.6 km/h 90% 0.0 mm 44 W/m2
13:51 2.9 °C 1.4 °C 1022.7 hPa ENE 1.4 km/h 3.2 km/h 90% 0.0 mm 56 W/m2
13:56 3 °C 1.5 °C 1022.7 hPa Calm     90% 0.0 mm 53 W/m2
14:01 3 °C 1.5 °C 1022.7 hPa Calm   1.6 km/h 90% 0.0 mm 63 W/m2
14:06 3.1 °C 1.6 °C 1022.7 hPa Calm     90% 0.0 mm 60 W/m2
14:11 3.2 °C 1.7 °C 1022.4 hPa ENE 1.4 km/h 1.6 km/h 90% 0.0 mm 62 W/m2
14:16 3.2 °C 1.7 °C 1022.4 hPa Calm     90% 0.0 mm 63 W/m2
14:21 3.3 °C 1.8 °C 1022.4 hPa Calm     90% 0.0 mm 62 W/m2
14:26 3.3 °C 1.8 °C 1022.4 hPa West 1.4 km/h 3.2 km/h 90% 0.0 mm 62 W/m2
14:31 3.3 °C 1.7 °C 1022.4 hPa West 1.4 km/h 3.2 km/h 89% 0.0 mm 70 W/m2
14:36 3.4 °C 1.9 °C 1022.4 hPa West 1.4 km/h 1.6 km/h 90% 0.0 mm 70 W/m2
14:41 3.4 °C 1.8 °C 1022.4 hPa West 1.4 km/h 1.6 km/h 89% 0.0 mm 67 W/m2
14:46 3.5 °C 1.9 °C 1022.4 hPa WNW 3.2 km/h 4.8 km/h 89% 0.0 mm 63 W/m2
14:51 3.6 °C 2 °C 1022.4 hPa Calm   1.6 km/h 89% 0.0 mm 63 W/m2
14:57 3.7 °C 2.1 °C 1022.4 hPa Calm     89% 0.0 mm 58 W/m2
15:02 3.7 °C 2.1 °C 1022.4 hPa Calm     89% 0.0 mm 53 W/m2
15:07 3.7 °C 2.1 °C 1022.4 hPa Calm     89% 0.0 mm 49 W/m2
15:12 3.8 °C 2.2 °C 1022.0 hPa Calm     89% 0.0 mm 42 W/m2
15:17 3.8 °C 2.2 °C 1022.0 hPa Calm     89% 0.0 mm 35 W/m2
15:22 3.9 °C 2.3 °C 1022.0 hPa Calm     89% 0.0 mm 33 W/m2
15:27 3.9 °C 2.3 °C 1022.4 hPa Calm   3.2 km/h 89% 0.0 mm 33 W/m2
15:32 4 °C 2.4 °C 1022.4 hPa Calm     89% 0.0 mm 32 W/m2
15:37 4 °C 2.2 °C 1022.4 hPa Calm   3.2 km/h 88% 0.0 mm 30 W/m2
15:42 4 °C 2.2 °C 1022.4 hPa Calm     88% 0.0 mm 30 W/m2
15:47 4.1 °C 2.3 °C 1022.0 hPa Calm     88% 0.0 mm 23 W/m2
15:52 4.1 °C 2.3 °C 1022.0 hPa Calm     88% 0.0 mm 25 W/m2
15:57 4.1 °C 2.3 °C 1022.0 hPa Calm     88% 0.0 mm 30 W/m2
16:02 4.1 °C 2.3 °C 1022.0 hPa Calm     88% 0.0 mm 33 W/m2
16:07 4.2 °C 2.4 °C 1022.0 hPa Calm     88% 0.0 mm 33 W/m2
16:12 4.2 °C 2.4 °C 1022.0 hPa Calm     88% 0.0 mm 33 W/m2
16:17 4.2 °C 2.5 °C 1022.0 hPa Calm     89% 0.0 mm 32 W/m2
16:22 4.2 °C 2.4 °C 1022.0 hPa Calm   1.6 km/h 88% 0.0 mm 26 W/m2
16:27 4.3 °C 2.5 °C 1022.0 hPa Calm     88% 0.0 mm 28 W/m2
16:32 4.3 °C 2.5 °C 1022.0 hPa Calm     88% 0.0 mm 26 W/m2
16:37 4.3 °C 2.5 °C 1022.0 hPa Calm     88% 0.0 mm 28 W/m2
16:42 4.3 °C 2.5 °C 1022.0 hPa Calm     88% 0.0 mm 28 W/m2
16:47 4.3 °C 2.5 °C 1022.0 hPa Calm     88% 0.0 mm 26 W/m2
16:52 4.3 °C 2.5 °C 1022.4 hPa Calm     88% 0.0 mm 25 W/m2
16:57 4.3 °C 2.5 °C 1022.4 hPa Calm     88% 0.0 mm 21 W/m2
17:02 4.4 °C 2.7 °C 1022.4 hPa Calm     89% 0.0 mm 19 W/m2
17:07 4.4 °C 2.7 °C 1022.4 hPa Calm     89% 0.0 mm 21 W/m2
17:12 4.3 °C 2.6 °C 1022.4 hPa Calm     89% 0.0 mm 23 W/m2
17:17 4.4 °C 2.7 °C 1022.4 hPa Calm     89% 0.0 mm 21 W/m2
17:22 4.3 °C 2.6 °C 1022.4 hPa Calm     89% 0.0 mm 18 W/m2
17:27 4.3 °C 2.6 °C 1022.4 hPa Calm     89% 0.0 mm 14 W/m2
17:32 4.3 °C 2.6 °C 1022.4 hPa Calm     89% 0.0 mm 11 W/m2
17:37 4.2 °C 2.5 °C 1022.4 hPa Calm     89% 0.0 mm 5 W/m2
17:42 4.2 °C 2.5 °C 1022.4 hPa Calm     89% 0.0 mm 0 W/m2
17:47 4.1 °C 2.5 °C 1022.4 hPa Calm     89% 0.0 mm 0 W/m2
17:52 4 °C 2.5 °C 1022.7 hPa Calm     90% 0.0 mm 0 W/m2
17:57 3.9 °C 2.4 °C 1022.7 hPa Calm     90% 0.0 mm 0 W/m2
18:02 3.9 °C 2.4 °C 1022.4 hPa Calm     90% 0.0 mm 0 W/m2
18:07 3.9 °C 2.4 °C 1022.7 hPa Calm     90% 0.0 mm 0 W/m2
18:12 3.8 °C 2.5 °C 1022.7 hPa Calm     91% 0.0 mm 0 W/m2
18:17 3.8 °C 2.5 °C 1022.7 hPa Calm     91% 0.0 mm 0 W/m2
18:22 3.8 °C 2.5 °C 1022.7 hPa Calm     91% 0.0 mm 0 W/m2
18:27 3.8 °C 2.5 °C 1022.7 hPa Calm     91% 0.0 mm 0 W/m2
18:32 3.8 °C 2.5 °C 1022.4 hPa Calm     91% 0.0 mm 0 W/m2
18:37 3.7 °C 2.4 °C 1022.7 hPa Calm     91% 0.0 mm 0 W/m2
18:42 3.7 °C 2.4 °C 1022.7 hPa Calm     91% 0.0 mm 0 W/m2
18:47 3.6 °C 2.3 °C 1022.7 hPa Calm     91% 0.0 mm 0 W/m2
18:52 3.6 °C 2.3 °C 1022.7 hPa Calm     91% 0.0 mm 0 W/m2
18:57 3.6 °C 2.4 °C 1022.7 hPa Calm     92% 0.0 mm 0 W/m2
19:02 3.5 °C 2.3 °C 1022.7 hPa Calm     92% 0.0 mm 0 W/m2
19:07 3.6 °C 2.4 °C 1022.7 hPa Calm   1.6 km/h 92% 0.0 mm 0 W/m2
19:12 3.6 °C 2.4 °C 1022.7 hPa Calm     92% 0.0 mm 0 W/m2
19:17 3.6 °C 2.4 °C 1022.7 hPa Calm   1.6 km/h 92% 0.0 mm 0 W/m2
19:22 3.6 °C 2.6 °C 1022.7 hPa Calm     93% 0.0 mm 0 W/m2
19:27 3.6 °C 2.6 °C 1022.4 hPa Calm     93% 0.0 mm 0 W/m2
19:32 3.6 °C 2.6 °C 1022.4 hPa Calm     93% 0.0 mm 0 W/m2
19:37 3.6 °C 2.6 °C 1022.7 hPa Calm     93% 0.0 mm 0 W/m2
19:42 3.6 °C 2.6 °C 1022.7 hPa Calm     93% 0.0 mm 0 W/m2
19:47 3.5 °C 2.5 °C 1022.7 hPa Calm     93% 0.0 mm 0 W/m2
19:52 3.4 °C 2.4 °C 1022.7 hPa Calm     93% 0.0 mm 0 W/m2
19:57 3.4 °C 2.4 °C 1022.7 hPa Calm     93% 0.0 mm 0 W/m2
20:03 3.4 °C 2.4 °C 1022.7 hPa Calm     93% 0.0 mm 0 W/m2
20:08 3.4 °C 2.4 °C 1022.7 hPa Calm     93% 0.0 mm 0 W/m2
20:13 3.5 °C 2.5 °C 1022.7 hPa Calm     93% 0.0 mm 0 W/m2
20:18 3.5 °C 2.5 °C 1022.7 hPa Calm     93% 0.0 mm 0 W/m2
20:23 3.6 °C 2.7 °C 1022.7 hPa Calm     94% 0.0 mm 0 W/m2
20:28 3.6 °C 2.7 °C 1022.7 hPa Calm     94% 0.0 mm 0 W/m2
20:33 3.6 °C 2.7 °C 1023.0 hPa Calm     94% 0.0 mm 0 W/m2
20:38 3.6 °C 2.7 °C 1022.7 hPa Calm     94% 0.0 mm 0 W/m2
20:43 3.7 °C 2.8 °C 1022.7 hPa Calm     94% 0.0 mm 0 W/m2
20:48 3.7 °C 2.8 °C 1022.7 hPa Calm     94% 0.0 mm 0 W/m2
20:53 3.7 °C 2.8 °C 1022.7 hPa Calm     94% 0.0 mm 0 W/m2
20:58 3.7 °C 2.8 °C 1022.7 hPa Calm     94% 0.0 mm 0 W/m2
21:03 3.7 °C 2.8 °C 1022.7 hPa Calm     94% 0.0 mm 0 W/m2
21:08 3.7 °C 2.8 °C 1022.7 hPa Calm     94% 0.0 mm 0 W/m2
21:13 3.7 °C 2.8 °C 1022.7 hPa Calm     94% 0.0 mm 0 W/m2
21:18 3.7 °C 2.8 °C 1023.0 hPa Calm   1.6 km/h 94% 0.0 mm 0 W/m2
21:23 3.7 °C 2.8 °C 1022.7 hPa Calm     94% 0.0 mm 0 W/m2
21:28 3.7 °C 2.8 °C 1022.7 hPa Calm     94% 0.0 mm 0 W/m2
21:33 3.7 °C 2.8 °C 1022.7 hPa Calm     94% 0.0 mm 0 W/m2
21:38 3.7 °C 2.8 °C 1022.7 hPa WNW 1.4 km/h 1.6 km/h 94% 0.0 mm 0 W/m2
21:43 3.7 °C 2.8 °C 1022.7 hPa Calm   1.6 km/h 94% 0.0 mm 0 W/m2
21:48 3.7 °C 2.8 °C 1022.7 hPa Calm   1.6 km/h 94% 0.0 mm 0 W/m2
21:53 3.7 °C 2.8 °C 1022.7 hPa Calm     94% 0.0 mm 0 W/m2
21:58 3.6 °C 2.7 °C 1022.4 hPa Calm     94% 0.0 mm 0 W/m2
22:03 3.6 °C 2.6 °C 1022.4 hPa Calm   1.6 km/h 93% 0.0 mm 0 W/m2
22:08 3.4 °C 2.4 °C 1022.4 hPa Calm     93% 0.0 mm 0 W/m2
22:13 3.3 °C 2.3 °C 1022.4 hPa Calm     93% 0.0 mm 0 W/m2
22:18 3.2 °C 2.2 °C 1022.4 hPa Calm     93% 0.0 mm 0 W/m2
22:23 3.1 °C 2.1 °C 1022.4 hPa Calm     93% 0.0 mm 0 W/m2
22:28 3 °C 2 °C 1022.4 hPa Calm     93% 0.0 mm 0 W/m2
22:33 2.9 °C 1.9 °C 1022.4 hPa Calm     93% 0.0 mm 0 W/m2
22:38 2.8 °C 1.9 °C 1022.4 hPa Calm     94% 0.0 mm 0 W/m2
22:43 2.8 °C 1.9 °C 1022.4 hPa Calm     94% 0.0 mm 0 W/m2
22:48 2.7 °C 1.8 °C 1022.4 hPa Calm     94% 0.0 mm 0 W/m2
22:53 2.7 °C 1.8 °C 1022.4 hPa Calm     94% 0.0 mm 0 W/m2
22:59 2.7 °C 1.8 °C 1022.4 hPa Calm     94% 0.0 mm 0 W/m2
23:04 2.7 °C 1.8 °C 1022.4 hPa Calm     94% 0.0 mm 0 W/m2
23:09 2.7 °C 1.8 °C 1022.4 hPa Calm     94% 0.0 mm 0 W/m2
23:14 2.7 °C 2 °C 1022.4 hPa Calm     95% 0.0 mm 0 W/m2
23:19 2.8 °C 2.1 °C 1022.4 hPa Calm     95% 0.0 mm 0 W/m2
23:24 2.9 °C 2.2 °C 1022.0 hPa Calm   1.6 km/h 95% 0.0 mm 0 W/m2
23:29 3 °C 2.3 °C 1022.0 hPa Calm     95% 0.0 mm 0 W/m2
23:34 3.1 °C 2.4 °C 1022.0 hPa Calm     95% 0.0 mm 0 W/m2
23:39 3.2 °C 2.5 °C 1022.4 hPa Calm     95% 0.0 mm 0 W/m2
23:44 3.1 °C 2.4 °C 1022.4 hPa Calm     95% 0.0 mm 0 W/m2
23:49 3.2 °C 2.5 °C 1022.4 hPa Calm   1.6 km/h 95% 0.0 mm 0 W/m2
23:54 3.3 °C 2.6 °C 1022.0 hPa WNW 3.2 km/h 4.8 km/h 95% 0.0 mm 0 W/m2
23:59 3.4 °C 2.7 °C 1022.4 hPa Calm   1.6 km/h 95% 0.0 mm 0 W/m2
Juneau County Weather
Compliments of Weather Underground - 4 mb